sensor_id;sensor_type;location;lat;lon;timestamp;P1;durP1;ratioP1;P2;durP2;ratioP2
21430;SDS011;10876;49.038;10.608;2024-03-02T00:00:43;9.25;;;5.15;;
21430;SDS011;10876;49.038;10.608;2024-03-02T00:03:11;7.35;;;3.78;;
21430;SDS011;10876;49.038;10.608;2024-03-02T00:05:39;8.07;;;4.60;;
21430;SDS011;10876;49.038;10.608;2024-03-02T00:08:06;10.27;;;4.93;;
21430;SDS011;10876;49.038;10.608;2024-03-02T00:10:35;9.68;;;4.85;;
21430;SDS011;10876;49.038;10.608;2024-03-02T00:13:06;7.53;;;4.53;;
21430;SDS011;10876;49.038;10.608;2024-03-02T00:15:40;8.82;;;3.75;;
21430;SDS011;10876;49.038;10.608;2024-03-02T00:18:07;9.55;;;4.55;;
21430;SDS011;10876;49.038;10.608;2024-03-02T00:20:34;10.60;;;4.07;;
21430;SDS011;10876;49.038;10.608;2024-03-02T00:23:02;8.68;;;4.88;;
21430;SDS011;10876;49.038;10.608;2024-03-02T00:25:33;8.15;;;3.78;;
21430;SDS011;10876;49.038;10.608;2024-03-02T00:28:02;11.73;;;4.32;;
21430;SDS011;10876;49.038;10.608;2024-03-02T00:30:40;7.80;;;4.38;;
21430;SDS011;10876;49.038;10.608;2024-03-02T00:33:10;9.90;;;4.15;;
21430;SDS011;10876;49.038;10.608;2024-03-02T00:35:36;9.75;;;4.55;;
21430;SDS011;10876;49.038;10.608;2024-03-02T00:38:03;7.75;;;4.20;;
21430;SDS011;10876;49.038;10.608;2024-03-02T00:40:31;6.88;;;4.22;;
21430;SDS011;10876;49.038;10.608;2024-03-02T00:42:58;9.50;;;4.45;;
21430;SDS011;10876;49.038;10.608;2024-03-02T00:45:25;9.07;;;5.22;;
21430;SDS011;10876;49.038;10.608;2024-03-02T00:47:54;12.30;;;4.40;;
21430;SDS011;10876;49.038;10.608;2024-03-02T00:50:21;8.40;;;3.92;;
21430;SDS011;10876;49.038;10.608;2024-03-02T00:52:48;9.65;;;5.13;;
21430;SDS011;10876;49.038;10.608;2024-03-02T00:55:14;6.15;;;3.38;;
21430;SDS011;10876;49.038;10.608;2024-03-02T00:57:41;6.88;;;4.30;;
21430;SDS011;10876;49.038;10.608;2024-03-02T01:00:10;10.20;;;4.20;;
21430;SDS011;10876;49.038;10.608;2024-03-02T01:02:40;7.00;;;3.85;;
21430;SDS011;10876;49.038;10.608;2024-03-02T01:05:09;11.00;;;4.80;;
21430;SDS011;10876;49.038;10.608;2024-03-02T01:07:37;8.13;;;3.70;;
21430;SDS011;10876;49.038;10.608;2024-03-02T01:10:04;8.02;;;3.63;;
21430;SDS011;10876;49.038;10.608;2024-03-02T01:12:31;6.93;;;4.22;;
21430;SDS011;10876;49.038;10.608;2024-03-02T01:14:58;7.68;;;4.55;;
21430;SDS011;10876;49.038;10.608;2024-03-02T01:17:24;6.10;;;3.95;;
21430;SDS011;10876;49.038;10.608;2024-03-02T01:19:51;8.55;;;3.58;;
21430;SDS011;10876;49.038;10.608;2024-03-02T01:22:19;8.30;;;3.85;;
21430;SDS011;10876;49.038;10.608;2024-03-02T01:24:50;8.50;;;3.38;;
21430;SDS011;10876;49.038;10.608;2024-03-02T01:27:16;9.88;;;4.60;;
21430;SDS011;10876;49.038;10.608;2024-03-02T01:29:44;6.53;;;3.80;;
21430;SDS011;10876;49.038;10.608;2024-03-02T01:32:10;7.63;;;4.53;;
21430;SDS011;10876;49.038;10.608;2024-03-02T01:34:36;4.57;;;3.60;;
21430;SDS011;10876;49.038;10.608;2024-03-02T01:37:02;6.93;;;4.32;;
21430;SDS011;10876;49.038;10.608;2024-03-02T01:39:30;4.63;;;2.80;;
21430;SDS011;10876;49.038;10.608;2024-03-02T01:41:57;7.70;;;3.92;;
21430;SDS011;10876;49.038;10.608;2024-03-02T01:44:24;11.40;;;4.95;;
21430;SDS011;10876;49.038;10.608;2024-03-02T01:46:50;11.70;;;6.00;;
21430;SDS011;10876;49.038;10.608;2024-03-02T01:49:17;7.53;;;3.80;;
21430;SDS011;10876;49.038;10.608;2024-03-02T01:51:44;11.18;;;4.35;;
21430;SDS011;10876;49.038;10.608;2024-03-02T01:54:11;7.57;;;3.58;;
21430;SDS011;10876;49.038;10.608;2024-03-02T01:56:39;10.43;;;5.50;;
21430;SDS011;10876;49.038;10.608;2024-03-02T01:59:06;7.88;;;4.25;;
21430;SDS011;10876;49.038;10.608;2024-03-02T02:01:33;9.30;;;5.10;;
21430;SDS011;10876;49.038;10.608;2024-03-02T02:03:59;10.77;;;4.25;;
21430;SDS011;10876;49.038;10.608;2024-03-02T02:06:26;8.07;;;5.20;;
21430;SDS011;10876;49.038;10.608;2024-03-02T02:11:44;7.53;;;3.45;;
21430;SDS011;10876;49.038;10.608;2024-03-02T02:14:11;9.98;;;5.05;;
21430;SDS011;10876;49.038;10.608;2024-03-02T02:16:38;7.03;;;4.90;;
21430;SDS011;10876;49.038;10.608;2024-03-02T02:19:05;6.15;;;3.88;;
21430;SDS011;10876;49.038;10.608;2024-03-02T02:27:20;6.82;;;4.13;;
21430;SDS011;10876;49.038;10.608;2024-03-02T02:29:47;7.70;;;3.00;;
21430;SDS011;10876;49.038;10.608;2024-03-02T02:32:14;7.45;;;3.80;;
21430;SDS011;10876;49.038;10.608;2024-03-02T02:34:40;7.13;;;4.68;;
21430;SDS011;10876;49.038;10.608;2024-03-02T02:37:07;9.75;;;4.43;;
21430;SDS011;10876;49.038;10.608;2024-03-02T02:39:34;6.80;;;4.03;;
21430;SDS011;10876;49.038;10.608;2024-03-02T02:42:00;9.85;;;4.57;;
21430;SDS011;10876;49.038;10.608;2024-03-02T02:44:29;8.55;;;4.68;;
21430;SDS011;10876;49.038;10.608;2024-03-02T02:46:56;4.00;;;3.22;;
21430;SDS011;10876;49.038;10.608;2024-03-02T02:49:22;9.90;;;4.60;;
21430;SDS011;10876;49.038;10.608;2024-03-02T02:51:49;8.52;;;4.65;;
21430;SDS011;10876;49.038;10.608;2024-03-02T02:54:15;7.05;;;4.13;;
21430;SDS011;10876;49.038;10.608;2024-03-02T02:56:42;11.82;;;3.75;;
21430;SDS011;10876;49.038;10.608;2024-03-02T02:59:09;8.05;;;4.45;;
21430;SDS011;10876;49.038;10.608;2024-03-02T03:01:37;11.00;;;5.15;;
21430;SDS011;10876;49.038;10.608;2024-03-02T03:04:05;13.07;;;4.65;;
21430;SDS011;10876;49.038;10.608;2024-03-02T03:06:31;7.57;;;4.50;;
21430;SDS011;10876;49.038;10.608;2024-03-02T03:08:58;6.95;;;4.13;;
21430;SDS011;10876;49.038;10.608;2024-03-02T03:11:25;8.02;;;3.78;;
21430;SDS011;10876;49.038;10.608;2024-03-02T03:13:51;10.50;;;4.63;;
21430;SDS011;10876;49.038;10.608;2024-03-02T03:16:19;5.88;;;4.13;;
21430;SDS011;10876;49.038;10.608;2024-03-02T03:18:47;9.40;;;4.90;;
21430;SDS011;10876;49.038;10.608;2024-03-02T03:21:16;8.40;;;4.47;;
21430;SDS011;10876;49.038;10.608;2024-03-02T03:23:43;8.05;;;3.90;;
21430;SDS011;10876;49.038;10.608;2024-03-02T03:26:10;10.15;;;5.43;;
21430;SDS011;10876;49.038;10.608;2024-03-02T03:28:36;5.90;;;4.03;;
21430;SDS011;10876;49.038;10.608;2024-03-02T03:31:03;6.82;;;3.40;;
21430;SDS011;10876;49.038;10.608;2024-03-02T03:33:30;12.88;;;5.57;;
21430;SDS011;10876;49.038;10.608;2024-03-02T03:35:58;8.57;;;4.88;;
21430;SDS011;10876;49.038;10.608;2024-03-02T03:38:24;11.82;;;5.03;;
21430;SDS011;10876;49.038;10.608;2024-03-02T03:40:51;8.80;;;4.10;;
21430;SDS011;10876;49.038;10.608;2024-03-02T03:43:18;6.88;;;4.40;;
21430;SDS011;10876;49.038;10.608;2024-03-02T03:45:44;7.88;;;4.50;;
21430;SDS011;10876;49.038;10.608;2024-03-02T03:48:11;9.07;;;4.63;;
21430;SDS011;10876;49.038;10.608;2024-03-02T03:50:37;6.10;;;3.67;;
21430;SDS011;10876;49.038;10.608;2024-03-02T03:53:06;10.63;;;3.70;;
21430;SDS011;10876;49.038;10.608;2024-03-02T03:55:35;6.38;;;3.85;;
21430;SDS011;10876;49.038;10.608;2024-03-02T03:58:02;7.05;;;3.33;;
21430;SDS011;10876;49.038;10.608;2024-03-02T04:00:27;10.68;;;4.00;;
21430;SDS011;10876;49.038;10.608;2024-03-02T04:02:54;8.93;;;4.72;;
21430;SDS011;10876;49.038;10.608;2024-03-02T04:05:21;5.90;;;3.90;;
21430;SDS011;10876;49.038;10.608;2024-03-02T04:07:48;4.97;;;3.40;;
21430;SDS011;10876;49.038;10.608;2024-03-02T04:10:16;7.70;;;4.57;;
21430;SDS011;10876;49.038;10.608;2024-03-02T04:12:43;7.38;;;4.20;;
21430;SDS011;10876;49.038;10.608;2024-03-02T04:15:10;8.23;;;4.65;;
21430;SDS011;10876;49.038;10.608;2024-03-02T04:17:36;6.45;;;4.07;;
21430;SDS011;10876;49.038;10.608;2024-03-02T04:20:03;8.20;;;4.90;;
21430;SDS011;10876;49.038;10.608;2024-03-02T04:22:32;13.90;;;5.00;;
21430;SDS011;10876;49.038;10.608;2024-03-02T04:24:59;8.88;;;4.85;;
21430;SDS011;10876;49.038;10.608;2024-03-02T04:27:27;6.55;;;4.35;;
21430;SDS011;10876;49.038;10.608;2024-03-02T04:29:53;8.63;;;5.30;;
21430;SDS011;10876;49.038;10.608;2024-03-02T04:32:20;8.77;;;4.00;;
21430;SDS011;10876;49.038;10.608;2024-03-02T04:34:47;7.28;;;5.30;;
21430;SDS011;10876;49.038;10.608;2024-03-02T04:37:13;8.70;;;4.05;;
21430;SDS011;10876;49.038;10.608;2024-03-02T04:39:40;8.35;;;4.13;;
21430;SDS011;10876;49.038;10.608;2024-03-02T04:42:07;8.48;;;5.03;;
21430;SDS011;10876;49.038;10.608;2024-03-02T04:44:35;7.00;;;5.53;;
21430;SDS011;10876;49.038;10.608;2024-03-02T04:47:03;8.68;;;5.00;;
21430;SDS011;10876;49.038;10.608;2024-03-02T04:49:29;5.47;;;4.10;;
21430;SDS011;10876;49.038;10.608;2024-03-02T04:51:59;8.68;;;5.78;;
21430;SDS011;10876;49.038;10.608;2024-03-02T04:54:27;9.10;;;4.90;;
21430;SDS011;10876;49.038;10.608;2024-03-02T04:56:53;8.13;;;4.60;;
21430;SDS011;10876;49.038;10.608;2024-03-02T04:59:20;11.15;;;5.63;;
21430;SDS011;10876;49.038;10.608;2024-03-02T05:01:48;9.85;;;4.65;;
21430;SDS011;10876;49.038;10.608;2024-03-02T05:04:15;13.00;;;6.20;;
21430;SDS011;10876;49.038;10.608;2024-03-02T05:06:41;12.18;;;5.45;;
21430;SDS011;10876;49.038;10.608;2024-03-02T05:09:09;7.80;;;4.65;;
21430;SDS011;10876;49.038;10.608;2024-03-02T05:11:36;7.32;;;4.28;;
21430;SDS011;10876;49.038;10.608;2024-03-02T05:14:22;10.70;;;5.20;;
21430;SDS011;10876;49.038;10.608;2024-03-02T05:16:50;7.03;;;3.65;;
21430;SDS011;10876;49.038;10.608;2024-03-02T05:19:17;6.38;;;3.92;;
21430;SDS011;10876;49.038;10.608;2024-03-02T05:21:44;7.43;;;4.28;;
21430;SDS011;10876;49.038;10.608;2024-03-02T05:24:10;3.70;;;3.40;;
21430;SDS011;10876;49.038;10.608;2024-03-02T05:26:37;5.60;;;4.70;;
21430;SDS011;10876;49.038;10.608;2024-03-02T05:29:04;8.25;;;4.80;;
21430;SDS011;10876;49.038;10.608;2024-03-02T05:31:30;13.40;;;4.97;;
21430;SDS011;10876;49.038;10.608;2024-03-02T05:33:58;9.93;;;4.97;;
21430;SDS011;10876;49.038;10.608;2024-03-02T05:36:25;9.95;;;4.72;;
21430;SDS011;10876;49.038;10.608;2024-03-02T05:38:52;10.23;;;3.97;;
21430;SDS011;10876;49.038;10.608;2024-03-02T05:41:18;16.88;;;5.20;;
21430;SDS011;10876;49.038;10.608;2024-03-02T05:43:46;7.95;;;3.90;;
21430;SDS011;10876;49.038;10.608;2024-03-02T05:46:12;11.93;;;5.80;;
21430;SDS011;10876;49.038;10.608;2024-03-02T05:48:39;9.30;;;4.30;;
21430;SDS011;10876;49.038;10.608;2024-03-02T05:51:07;7.90;;;4.35;;
21430;SDS011;10876;49.038;10.608;2024-03-02T05:53:34;6.60;;;4.07;;
21430;SDS011;10876;49.038;10.608;2024-03-02T05:56:03;11.02;;;5.68;;
21430;SDS011;10876;49.038;10.608;2024-03-02T05:58:30;6.03;;;4.38;;
21430;SDS011;10876;49.038;10.608;2024-03-02T06:01:08;13.27;;;4.47;;
21430;SDS011;10876;49.038;10.608;2024-03-02T06:03:35;12.32;;;4.95;;
21430;SDS011;10876;49.038;10.608;2024-03-02T06:06:01;10.13;;;4.80;;
21430;SDS011;10876;49.038;10.608;2024-03-02T06:08:29;6.65;;;4.40;;
21430;SDS011;10876;49.038;10.608;2024-03-02T06:10:56;10.90;;;3.72;;
21430;SDS011;10876;49.038;10.608;2024-03-02T06:13:23;10.77;;;4.00;;
21430;SDS011;10876;49.038;10.608;2024-03-02T06:15:50;10.70;;;5.05;;
21430;SDS011;10876;49.038;10.608;2024-03-02T06:18:17;7.60;;;3.85;;
21430;SDS011;10876;49.038;10.608;2024-03-02T06:20:44;6.70;;;4.85;;
21430;SDS011;10876;49.038;10.608;2024-03-02T06:23:10;7.97;;;4.50;;
21430;SDS011;10876;49.038;10.608;2024-03-02T06:25:38;6.45;;;4.63;;
21430;SDS011;10876;49.038;10.608;2024-03-02T06:28:05;6.20;;;4.35;;
21430;SDS011;10876;49.038;10.608;2024-03-02T06:30:32;7.30;;;4.05;;
21430;SDS011;10876;49.038;10.608;2024-03-02T06:32:59;11.25;;;5.55;;
21430;SDS011;10876;49.038;10.608;2024-03-02T06:35:25;8.18;;;5.65;;
21430;SDS011;10876;49.038;10.608;2024-03-02T06:37:52;5.32;;;3.90;;
21430;SDS011;10876;49.038;10.608;2024-03-02T06:40:19;7.85;;;4.88;;
21430;SDS011;10876;49.038;10.608;2024-03-02T06:42:47;8.20;;;5.05;;
21430;SDS011;10876;49.038;10.608;2024-03-02T06:45:14;12.57;;;6.93;;
21430;SDS011;10876;49.038;10.608;2024-03-02T06:47:41;10.60;;;5.90;;
21430;SDS011;10876;49.038;10.608;2024-03-02T06:50:08;10.43;;;5.60;;
21430;SDS011;10876;49.038;10.608;2024-03-02T06:52:34;10.70;;;5.65;;
21430;SDS011;10876;49.038;10.608;2024-03-02T06:55:01;9.05;;;5.18;;
21430;SDS011;10876;49.038;10.608;2024-03-02T06:57:29;6.15;;;4.18;;
21430;SDS011;10876;49.038;10.608;2024-03-02T06:59:57;8.98;;;4.82;;
21430;SDS011;10876;49.038;10.608;2024-03-02T07:02:25;6.38;;;3.85;;
21430;SDS011;10876;49.038;10.608;2024-03-02T07:04:52;12.25;;;6.47;;
21430;SDS011;10876;49.038;10.608;2024-03-02T07:07:19;9.90;;;6.00;;
21430;SDS011;10876;49.038;10.608;2024-03-02T07:09:46;10.43;;;5.13;;
21430;SDS011;10876;49.038;10.608;2024-03-02T07:12:13;10.32;;;4.93;;
21430;SDS011;10876;49.038;10.608;2024-03-02T07:14:40;12.25;;;5.18;;
21430;SDS011;10876;49.038;10.608;2024-03-02T07:17:29;11.98;;;5.47;;
21430;SDS011;10876;49.038;10.608;2024-03-02T07:19:56;9.80;;;5.38;;
21430;SDS011;10876;49.038;10.608;2024-03-02T07:22:22;8.10;;;4.38;;
21430;SDS011;10876;49.038;10.608;2024-03-02T07:24:49;7.00;;;4.35;;
21430;SDS011;10876;49.038;10.608;2024-03-02T07:27:16;10.32;;;5.00;;
21430;SDS011;10876;49.038;10.608;2024-03-02T07:29:43;7.80;;;4.78;;
21430;SDS011;10876;49.038;10.608;2024-03-02T07:32:10;4.70;;;4.15;;
21430;SDS011;10876;49.038;10.608;2024-03-02T07:34:38;8.73;;;4.25;;
21430;SDS011;10876;49.038;10.608;2024-03-02T07:37:04;9.35;;;4.68;;
21430;SDS011;10876;49.038;10.608;2024-03-02T07:39:40;10.77;;;4.45;;
21430;SDS011;10876;49.038;10.608;2024-03-02T07:42:06;6.90;;;4.18;;
21430;SDS011;10876;49.038;10.608;2024-03-02T07:44:33;8.15;;;4.90;;
21430;SDS011;10876;49.038;10.608;2024-03-02T07:47:00;5.97;;;4.28;;
21430;SDS011;10876;49.038;10.608;2024-03-02T07:49:26;6.43;;;3.72;;
21430;SDS011;10876;49.038;10.608;2024-03-02T07:51:54;7.80;;;5.18;;
21430;SDS011;10876;49.038;10.608;2024-03-02T07:54:21;8.50;;;4.57;;
21430;SDS011;10876;49.038;10.608;2024-03-02T07:56:48;7.05;;;4.28;;
21430;SDS011;10876;49.038;10.608;2024-03-02T07:59:14;19.63;;;5.65;;
21430;SDS011;10876;49.038;10.608;2024-03-02T08:01:41;7.32;;;4.68;;
21430;SDS011;10876;49.038;10.608;2024-03-02T08:04:08;7.10;;;4.85;;
21430;SDS011;10876;49.038;10.608;2024-03-02T08:06:35;11.90;;;4.22;;
21430;SDS011;10876;49.038;10.608;2024-03-02T08:09:03;9.73;;;4.40;;
21430;SDS011;10876;49.038;10.608;2024-03-02T08:11:35;8.32;;;5.63;;
21430;SDS011;10876;49.038;10.608;2024-03-02T08:14:02;9.23;;;5.28;;
21430;SDS011;10876;49.038;10.608;2024-03-02T08:16:29;7.78;;;4.43;;
21430;SDS011;10876;49.038;10.608;2024-03-02T08:18:55;14.35;;;5.85;;
21430;SDS011;10876;49.038;10.608;2024-03-02T08:21:23;6.90;;;4.45;;
21430;SDS011;10876;49.038;10.608;2024-03-02T08:23:50;13.32;;;4.47;;
21430;SDS011;10876;49.038;10.608;2024-03-02T08:26:18;10.20;;;5.47;;
21430;SDS011;10876;49.038;10.608;2024-03-02T08:28:44;8.80;;;4.25;;
21430;SDS011;10876;49.038;10.608;2024-03-02T08:31:11;11.65;;;4.55;;
21430;SDS011;10876;49.038;10.608;2024-03-02T08:33:43;6.88;;;4.75;;
21430;SDS011;10876;49.038;10.608;2024-03-02T08:38:58;9.68;;;4.60;;
21430;SDS011;10876;49.038;10.608;2024-03-02T08:41:26;9.32;;;4.38;;
21430;SDS011;10876;49.038;10.608;2024-03-02T08:43:53;8.35;;;5.50;;
21430;SDS011;10876;49.038;10.608;2024-03-02T08:46:20;11.20;;;5.32;;
21430;SDS011;10876;49.038;10.608;2024-03-02T08:48:46;12.07;;;5.18;;
21430;SDS011;10876;49.038;10.608;2024-03-02T08:51:13;9.73;;;4.53;;
21430;SDS011;10876;49.038;10.608;2024-03-02T08:53:41;7.20;;;4.38;;
21430;SDS011;10876;49.038;10.608;2024-03-02T08:56:08;8.13;;;5.00;;
21430;SDS011;10876;49.038;10.608;2024-03-02T08:58:36;9.63;;;4.70;;
21430;SDS011;10876;49.038;10.608;2024-03-02T09:01:02;6.72;;;4.15;;
21430;SDS011;10876;49.038;10.608;2024-03-02T09:03:29;9.45;;;4.20;;
21430;SDS011;10876;49.038;10.608;2024-03-02T09:05:58;6.82;;;4.25;;
21430;SDS011;10876;49.038;10.608;2024-03-02T09:08:25;8.20;;;5.18;;
21430;SDS011;10876;49.038;10.608;2024-03-02T09:10:51;11.60;;;5.47;;
21430;SDS011;10876;49.038;10.608;2024-03-02T09:13:18;6.63;;;3.75;;
21430;SDS011;10876;49.038;10.608;2024-03-02T09:15:46;7.95;;;4.32;;
21430;SDS011;10876;49.038;10.608;2024-03-02T09:18:13;10.32;;;4.97;;
21430;SDS011;10876;49.038;10.608;2024-03-02T09:20:39;9.77;;;5.30;;
21430;SDS011;10876;49.038;10.608;2024-03-02T09:23:06;8.10;;;3.88;;
21430;SDS011;10876;49.038;10.608;2024-03-02T09:25:33;6.53;;;3.53;;
21430;SDS011;10876;49.038;10.608;2024-03-02T09:27:59;6.75;;;4.57;;
21430;SDS011;10876;49.038;10.608;2024-03-02T09:30:26;7.38;;;4.18;;
21430;SDS011;10876;49.038;10.608;2024-03-02T09:32:54;6.65;;;3.88;;
21430;SDS011;10876;49.038;10.608;2024-03-02T09:35:20;9.57;;;3.85;;
21430;SDS011;10876;49.038;10.608;2024-03-02T09:37:47;8.98;;;3.90;;
21430;SDS011;10876;49.038;10.608;2024-03-02T09:40:14;5.38;;;3.42;;
21430;SDS011;10876;49.038;10.608;2024-03-02T09:42:42;5.40;;;3.28;;
21430;SDS011;10876;49.038;10.608;2024-03-02T09:45:09;6.00;;;3.72;;
21430;SDS011;10876;49.038;10.608;2024-03-02T09:47:35;5.95;;;2.70;;
21430;SDS011;10876;49.038;10.608;2024-03-02T09:50:04;5.53;;;3.15;;
21430;SDS011;10876;49.038;10.608;2024-03-02T09:52:30;7.30;;;3.30;;
21430;SDS011;10876;49.038;10.608;2024-03-02T09:54:58;5.22;;;3.10;;
21430;SDS011;10876;49.038;10.608;2024-03-02T09:57:24;7.55;;;3.50;;
21430;SDS011;10876;49.038;10.608;2024-03-02T09:59:51;13.52;;;3.53;;
21430;SDS011;10876;49.038;10.608;2024-03-02T10:02:18;7.00;;;2.63;;
21430;SDS011;10876;49.038;10.608;2024-03-02T10:04:44;3.60;;;2.50;;
21430;SDS011;10876;49.038;10.608;2024-03-02T10:07:14;4.78;;;2.88;;
21430;SDS011;10876;49.038;10.608;2024-03-02T10:09:41;5.15;;;3.05;;
21430;SDS011;10876;49.038;10.608;2024-03-02T10:12:08;6.50;;;3.17;;
21430;SDS011;10876;49.038;10.608;2024-03-02T10:14:35;4.10;;;2.38;;
21430;SDS011;10876;49.038;10.608;2024-03-02T10:17:02;3.50;;;2.13;;
21430;SDS011;10876;49.038;10.608;2024-03-02T10:19:30;6.60;;;2.92;;
21430;SDS011;10876;49.038;10.608;2024-03-02T10:21:58;3.58;;;2.53;;
21430;SDS011;10876;49.038;10.608;2024-03-02T10:24:27;3.92;;;2.53;;
21430;SDS011;10876;49.038;10.608;2024-03-02T10:26:53;4.80;;;2.30;;
21430;SDS011;10876;49.038;10.608;2024-03-02T10:29:22;6.03;;;2.53;;
21430;SDS011;10876;49.038;10.608;2024-03-02T10:31:48;4.03;;;1.92;;
21430;SDS011;10876;49.038;10.608;2024-03-02T10:34:15;5.78;;;2.70;;
21430;SDS011;10876;49.038;10.608;2024-03-02T10:36:43;2.70;;;1.55;;
21430;SDS011;10876;49.038;10.608;2024-03-02T10:39:10;3.25;;;2.08;;
21430;SDS011;10876;49.038;10.608;2024-03-02T10:41:40;4.10;;;2.25;;
21430;SDS011;10876;49.038;10.608;2024-03-02T10:44:07;2.50;;;1.80;;
21430;SDS011;10876;49.038;10.608;2024-03-02T10:46:35;4.65;;;2.50;;
21430;SDS011;10876;49.038;10.608;2024-03-02T10:49:02;5.53;;;2.20;;
21430;SDS011;10876;49.038;10.608;2024-03-02T10:51:30;3.95;;;2.50;;
21430;SDS011;10876;49.038;10.608;2024-03-02T10:53:57;5.28;;;2.30;;
21430;SDS011;10876;49.038;10.608;2024-03-02T10:56:27;3.63;;;1.80;;
21430;SDS011;10876;49.038;10.608;2024-03-02T10:59:00;3.10;;;2.30;;
21430;SDS011;10876;49.038;10.608;2024-03-02T11:01:28;3.63;;;2.28;;
21430;SDS011;10876;49.038;10.608;2024-03-02T11:03:55;4.15;;;2.10;;
21430;SDS011;10876;49.038;10.608;2024-03-02T11:06:22;3.55;;;2.20;;
21430;SDS011;10876;49.038;10.608;2024-03-02T11:08:52;4.40;;;2.17;;
21430;SDS011;10876;49.038;10.608;2024-03-02T11:11:26;5.80;;;2.47;;
21430;SDS011;10876;49.038;10.608;2024-03-02T11:13:56;3.15;;;2.08;;
21430;SDS011;10876;49.038;10.608;2024-03-02T11:16:27;3.97;;;2.47;;
21430;SDS011;10876;49.038;10.608;2024-03-02T11:19:00;4.22;;;2.92;;
21430;SDS011;10876;49.038;10.608;2024-03-02T11:21:27;5.20;;;2.60;;
21430;SDS011;10876;49.038;10.608;2024-03-02T11:23:54;4.55;;;3.22;;
21430;SDS011;10876;49.038;10.608;2024-03-02T11:26:21;3.08;;;1.92;;
21430;SDS011;10876;49.038;10.608;2024-03-02T11:28:48;2.85;;;2.03;;
21430;SDS011;10876;49.038;10.608;2024-03-02T11:31:17;3.65;;;2.42;;
21430;SDS011;10876;49.038;10.608;2024-03-02T11:33:44;5.13;;;1.88;;
21430;SDS011;10876;49.038;10.608;2024-03-02T11:36:10;3.08;;;1.77;;
21430;SDS011;10876;49.038;10.608;2024-03-02T11:38:37;4.80;;;2.30;;
21430;SDS011;10876;49.038;10.608;2024-03-02T11:41:06;4.70;;;2.60;;
21430;SDS011;10876;49.038;10.608;2024-03-02T11:43:36;2.95;;;1.90;;
21430;SDS011;10876;49.038;10.608;2024-03-02T11:46:05;2.92;;;1.40;;
21430;SDS011;10876;49.038;10.608;2024-03-02T11:48:34;4.03;;;2.17;;
21430;SDS011;10876;49.038;10.608;2024-03-02T11:51:01;2.45;;;1.80;;
21430;SDS011;10876;49.038;10.608;2024-03-02T11:53:27;2.75;;;1.25;;
21430;SDS011;10876;49.038;10.608;2024-03-02T11:55:55;3.97;;;1.85;;
21430;SDS011;10876;49.038;10.608;2024-03-02T11:58:22;2.78;;;1.73;;
21430;SDS011;10876;49.038;10.608;2024-03-02T12:00:50;3.03;;;1.65;;
21430;SDS011;10876;49.038;10.608;2024-03-02T12:03:17;2.28;;;1.58;;
21430;SDS011;10876;49.038;10.608;2024-03-02T12:05:45;1.42;;;1.00;;
21430;SDS011;10876;49.038;10.608;2024-03-02T12:08:14;3.45;;;1.92;;
21430;SDS011;10876;49.038;10.608;2024-03-02T12:10:41;3.10;;;1.88;;
21430;SDS011;10876;49.038;10.608;2024-03-02T12:13:09;2.72;;;1.60;;
21430;SDS011;10876;49.038;10.608;2024-03-02T12:15:37;3.53;;;1.88;;
21430;SDS011;10876;49.038;10.608;2024-03-02T12:18:04;4.20;;;2.00;;
21430;SDS011;10876;49.038;10.608;2024-03-02T12:20:32;2.20;;;1.30;;
21430;SDS011;10876;49.038;10.608;2024-03-02T12:23:00;3.95;;;1.92;;
21430;SDS011;10876;49.038;10.608;2024-03-02T12:25:27;3.95;;;1.80;;
21430;SDS011;10876;49.038;10.608;2024-03-02T12:27:55;4.53;;;1.98;;
21430;SDS011;10876;49.038;10.608;2024-03-02T12:30:22;6.13;;;3.13;;
21430;SDS011;10876;49.038;10.608;2024-03-02T12:32:49;4.70;;;2.97;;
21430;SDS011;10876;49.038;10.608;2024-03-02T12:35:17;4.20;;;2.53;;
21430;SDS011;10876;49.038;10.608;2024-03-02T12:37:44;4.05;;;2.30;;
21430;SDS011;10876;49.038;10.608;2024-03-02T12:40:12;6.65;;;2.25;;
21430;SDS011;10876;49.038;10.608;2024-03-02T12:42:39;7.03;;;3.55;;
21430;SDS011;10876;49.038;10.608;2024-03-02T12:45:05;5.95;;;2.60;;
21430;SDS011;10876;49.038;10.608;2024-03-02T12:47:33;6.00;;;3.33;;
21430;SDS011;10876;49.038;10.608;2024-03-02T12:49:59;7.57;;;3.03;;
21430;SDS011;10876;49.038;10.608;2024-03-02T12:52:31;7.18;;;3.10;;
21430;SDS011;10876;49.038;10.608;2024-03-02T12:54:59;7.20;;;4.10;;
21430;SDS011;10876;49.038;10.608;2024-03-02T12:57:27;9.02;;;3.83;;
21430;SDS011;10876;49.038;10.608;2024-03-02T12:59:57;7.53;;;3.25;;
21430;SDS011;10876;49.038;10.608;2024-03-02T13:02:27;7.45;;;3.67;;
21430;SDS011;10876;49.038;10.608;2024-03-02T13:04:53;5.15;;;2.50;;
21430;SDS011;10876;49.038;10.608;2024-03-02T13:07:20;7.45;;;3.05;;
21430;SDS011;10876;49.038;10.608;2024-03-02T13:09:49;10.98;;;3.35;;
21430;SDS011;10876;49.038;10.608;2024-03-02T13:12:16;7.82;;;3.70;;
21430;SDS011;10876;49.038;10.608;2024-03-02T13:14:44;5.43;;;3.10;;
21430;SDS011;10876;49.038;10.608;2024-03-02T13:17:10;5.30;;;3.13;;
21430;SDS011;10876;49.038;10.608;2024-03-02T13:19:43;7.28;;;3.85;;
21430;SDS011;10876;49.038;10.608;2024-03-02T13:22:10;5.28;;;2.83;;
21430;SDS011;10876;49.038;10.608;2024-03-02T13:24:37;6.35;;;3.30;;
21430;SDS011;10876;49.038;10.608;2024-03-02T13:27:04;5.90;;;3.28;;
21430;SDS011;10876;49.038;10.608;2024-03-02T13:29:30;8.32;;;3.95;;
21430;SDS011;10876;49.038;10.608;2024-03-02T13:31:58;7.05;;;3.55;;
21430;SDS011;10876;49.038;10.608;2024-03-02T13:34:25;8.18;;;4.53;;
21430;SDS011;10876;49.038;10.608;2024-03-02T13:36:52;7.57;;;4.80;;
21430;SDS011;10876;49.038;10.608;2024-03-02T13:39:18;7.43;;;3.45;;
21430;SDS011;10876;49.038;10.608;2024-03-02T13:41:45;7.18;;;4.10;;
21430;SDS011;10876;49.038;10.608;2024-03-02T13:44:17;8.85;;;4.85;;
21430;SDS011;10876;49.038;10.608;2024-03-02T13:46:44;7.70;;;3.70;;
21430;SDS011;10876;49.038;10.608;2024-03-02T13:49:12;10.13;;;4.30;;
21430;SDS011;10876;49.038;10.608;2024-03-02T13:51:39;9.27;;;4.05;;
21430;SDS011;10876;49.038;10.608;2024-03-02T13:54:06;10.35;;;4.47;;
21430;SDS011;10876;49.038;10.608;2024-03-02T13:56:32;9.98;;;4.25;;
21430;SDS011;10876;49.038;10.608;2024-03-02T13:58:59;8.73;;;4.00;;
21430;SDS011;10876;49.038;10.608;2024-03-02T14:01:25;7.28;;;2.83;;
21430;SDS011;10876;49.038;10.608;2024-03-02T14:03:52;8.23;;;3.88;;
21430;SDS011;10876;49.038;10.608;2024-03-02T14:06:21;8.77;;;3.95;;
21430;SDS011;10876;49.038;10.608;2024-03-02T14:08:48;6.43;;;3.30;;
21430;SDS011;10876;49.038;10.608;2024-03-02T14:11:15;5.95;;;3.20;;
21430;SDS011;10876;49.038;10.608;2024-03-02T14:13:42;7.07;;;3.65;;
21430;SDS011;10876;49.038;10.608;2024-03-02T14:16:09;6.90;;;3.50;;
21430;SDS011;10876;49.038;10.608;2024-03-02T14:18:36;5.88;;;3.28;;
21430;SDS011;10876;49.038;10.608;2024-03-02T14:21:03;10.48;;;3.97;;
21430;SDS011;10876;49.038;10.608;2024-03-02T14:23:31;8.45;;;3.72;;
21430;SDS011;10876;49.038;10.608;2024-03-02T14:25:58;10.05;;;4.55;;
21430;SDS011;10876;49.038;10.608;2024-03-02T14:28:24;7.78;;;3.88;;
21430;SDS011;10876;49.038;10.608;2024-03-02T14:30:51;10.77;;;3.67;;
21430;SDS011;10876;49.038;10.608;2024-03-02T14:33:18;9.82;;;4.90;;
21430;SDS011;10876;49.038;10.608;2024-03-02T14:35:46;7.80;;;3.83;;
21430;SDS011;10876;49.038;10.608;2024-03-02T14:38:13;10.70;;;3.95;;
21430;SDS011;10876;49.038;10.608;2024-03-02T14:40:42;8.02;;;4.18;;
21430;SDS011;10876;49.038;10.608;2024-03-02T14:43:08;7.78;;;4.47;;